sensor_id;sensor_type;location;lat;lon;timestamp;P1;durP1;ratioP1;P2;durP2;ratioP2
4278;SDS011;2153;47.744;10.580;2023-08-07T00:01:17;11.27;;;1.90;;
4278;SDS011;2153;47.744;10.580;2023-08-07T00:03:44;10.83;;;1.70;;
4278;SDS011;2153;47.744;10.580;2023-08-07T00:06:12;11.33;;;1.60;;
4278;SDS011;2153;47.744;10.580;2023-08-07T00:08:40;11.40;;;1.70;;
4278;SDS011;2153;47.744;10.580;2023-08-07T00:11:07;11.70;;;1.83;;
4278;SDS011;2153;47.744;10.580;2023-08-07T00:13:34;10.87;;;1.57;;
4278;SDS011;2153;47.744;10.580;2023-08-07T00:16:01;10.93;;;1.33;;
4278;SDS011;2153;47.744;10.580;2023-08-07T00:18:28;14.70;;;1.43;;
4278;SDS011;2153;47.744;10.580;2023-08-07T00:20:55;10.70;;;1.43;;
4278;SDS011;2153;47.744;10.580;2023-08-07T00:23:22;10.60;;;1.40;;
4278;SDS011;2153;47.744;10.580;2023-08-07T00:25:50;11.17;;;1.80;;
4278;SDS011;2153;47.744;10.580;2023-08-07T00:28:17;11.07;;;1.90;;
4278;SDS011;2153;47.744;10.580;2023-08-07T00:30:43;34.83;;;2.30;;
4278;SDS011;2153;47.744;10.580;2023-08-07T00:33:10;12.20;;;2.00;;
4278;SDS011;2153;47.744;10.580;2023-08-07T00:35:37;11.20;;;1.80;;
4278;SDS011;2153;47.744;10.580;2023-08-07T00:38:04;12.13;;;2.17;;
4278;SDS011;2153;47.744;10.580;2023-08-07T00:40:35;11.90;;;2.33;;
4278;SDS011;2153;47.744;10.580;2023-08-07T00:43:04;11.07;;;1.83;;
4278;SDS011;2153;47.744;10.580;2023-08-07T00:45:32;11.30;;;2.10;;
4278;SDS011;2153;47.744;10.580;2023-08-07T00:48:02;12.40;;;2.60;;
4278;SDS011;2153;47.744;10.580;2023-08-07T00:50:29;12.13;;;2.10;;
4278;SDS011;2153;47.744;10.580;2023-08-07T00:52:56;10.80;;;1.87;;
4278;SDS011;2153;47.744;10.580;2023-08-07T00:55:23;11.70;;;1.70;;
4278;SDS011;2153;47.744;10.580;2023-08-07T00:57:50;12.40;;;2.20;;
4278;SDS011;2153;47.744;10.580;2023-08-07T01:00:18;15.53;;;2.23;;
4278;SDS011;2153;47.744;10.580;2023-08-07T01:02:47;11.83;;;1.80;;
4278;SDS011;2153;47.744;10.580;2023-08-07T01:05:16;11.90;;;2.30;;
4278;SDS011;2153;47.744;10.580;2023-08-07T01:07:43;14.53;;;1.80;;
4278;SDS011;2153;47.744;10.580;2023-08-07T01:10:09;11.57;;;2.10;;
4278;SDS011;2153;47.744;10.580;2023-08-07T01:12:39;11.10;;;1.60;;
4278;SDS011;2153;47.744;10.580;2023-08-07T01:15:12;16.10;;;2.40;;
4278;SDS011;2153;47.744;10.580;2023-08-07T01:17:42;12.40;;;1.90;;
4278;SDS011;2153;47.744;10.580;2023-08-07T01:20:10;10.77;;;1.60;;
4278;SDS011;2153;47.744;10.580;2023-08-07T01:22:39;12.33;;;2.17;;
4278;SDS011;2153;47.744;10.580;2023-08-07T01:25:05;11.20;;;1.73;;
4278;SDS011;2153;47.744;10.580;2023-08-07T01:27:35;10.50;;;1.50;;
4278;SDS011;2153;47.744;10.580;2023-08-07T01:30:09;11.00;;;1.83;;
4278;SDS011;2153;47.744;10.580;2023-08-07T01:32:42;10.70;;;1.50;;
4278;SDS011;2153;47.744;10.580;2023-08-07T01:35:14;10.53;;;1.50;;
4278;SDS011;2153;47.744;10.580;2023-08-07T01:37:43;10.33;;;1.53;;
4278;SDS011;2153;47.744;10.580;2023-08-07T01:40:12;11.53;;;1.57;;
4278;SDS011;2153;47.744;10.580;2023-08-07T01:42:40;10.70;;;1.20;;
4278;SDS011;2153;47.744;10.580;2023-08-07T01:45:07;10.77;;;1.60;;
4278;SDS011;2153;47.744;10.580;2023-08-07T01:47:34;9.90;;;1.10;;
4278;SDS011;2153;47.744;10.580;2023-08-07T01:50:00;9.87;;;1.10;;
4278;SDS011;2153;47.744;10.580;2023-08-07T01:52:27;10.40;;;1.50;;
4278;SDS011;2153;47.744;10.580;2023-08-07T01:54:55;11.90;;;1.77;;
4278;SDS011;2153;47.744;10.580;2023-08-07T01:57:22;11.00;;;1.50;;
4278;SDS011;2153;47.744;10.580;2023-08-07T01:59:49;12.73;;;1.30;;
4278;SDS011;2153;47.744;10.580;2023-08-07T02:02:15;10.73;;;1.50;;
4278;SDS011;2153;47.744;10.580;2023-08-07T02:04:42;11.50;;;1.57;;
4278;SDS011;2153;47.744;10.580;2023-08-07T02:07:09;13.47;;;1.70;;
4278;SDS011;2153;47.744;10.580;2023-08-07T02:09:35;14.23;;;1.70;;
4278;SDS011;2153;47.744;10.580;2023-08-07T02:12:04;15.10;;;2.13;;
4278;SDS011;2153;47.744;10.580;2023-08-07T02:14:32;11.20;;;1.83;;
4278;SDS011;2153;47.744;10.580;2023-08-07T02:16:58;13.93;;;2.03;;
4278;SDS011;2153;47.744;10.580;2023-08-07T02:19:25;10.80;;;1.83;;
4278;SDS011;2153;47.744;10.580;2023-08-07T02:21:52;13.20;;;2.20;;
4278;SDS011;2153;47.744;10.580;2023-08-07T02:24:19;11.60;;;2.10;;
4278;SDS011;2153;47.744;10.580;2023-08-07T02:26:45;12.10;;;2.50;;
4278;SDS011;2153;47.744;10.580;2023-08-07T02:29:13;11.13;;;2.10;;
4278;SDS011;2153;47.744;10.580;2023-08-07T02:31:40;11.67;;;2.00;;
4278;SDS011;2153;47.744;10.580;2023-08-07T02:34:07;11.83;;;2.50;;
4278;SDS011;2153;47.744;10.580;2023-08-07T02:36:33;13.53;;;3.00;;
4278;SDS011;2153;47.744;10.580;2023-08-07T02:39:00;13.93;;;2.63;;
4278;SDS011;2153;47.744;10.580;2023-08-07T02:41:27;17.00;;;2.30;;
4278;SDS011;2153;47.744;10.580;2023-08-07T02:43:54;12.87;;;2.93;;
4278;SDS011;2153;47.744;10.580;2023-08-07T02:46:22;11.20;;;2.20;;
4278;SDS011;2153;47.744;10.580;2023-08-07T02:48:48;12.60;;;2.30;;
4278;SDS011;2153;47.744;10.580;2023-08-07T02:51:16;13.30;;;2.43;;
4278;SDS011;2153;47.744;10.580;2023-08-07T02:53:43;13.03;;;2.97;;
4278;SDS011;2153;47.744;10.580;2023-08-07T02:56:10;11.93;;;2.13;;
4278;SDS011;2153;47.744;10.580;2023-08-07T02:58:36;13.43;;;3.40;;
4278;SDS011;2153;47.744;10.580;2023-08-07T03:01:03;22.30;;;2.83;;
4278;SDS011;2153;47.744;10.580;2023-08-07T03:03:32;14.67;;;2.90;;
4278;SDS011;2153;47.744;10.580;2023-08-07T03:05:59;12.57;;;2.23;;
4278;SDS011;2153;47.744;10.580;2023-08-07T03:08:26;14.73;;;3.33;;
4278;SDS011;2153;47.744;10.580;2023-08-07T03:10:53;11.83;;;2.23;;
4278;SDS011;2153;47.744;10.580;2023-08-07T03:13:21;17.13;;;3.40;;
4278;SDS011;2153;47.744;10.580;2023-08-07T03:15:48;15.30;;;3.40;;
4278;SDS011;2153;47.744;10.580;2023-08-07T03:18:15;12.53;;;2.70;;
4278;SDS011;2153;47.744;10.580;2023-08-07T03:20:43;21.27;;;2.90;;
4278;SDS011;2153;47.744;10.580;2023-08-07T03:23:10;13.33;;;2.50;;
4278;SDS011;2153;47.744;10.580;2023-08-07T03:25:37;15.47;;;2.97;;
4278;SDS011;2153;47.744;10.580;2023-08-07T03:28:04;15.13;;;2.83;;
4278;SDS011;2153;47.744;10.580;2023-08-07T03:30:30;13.17;;;2.60;;
4278;SDS011;2153;47.744;10.580;2023-08-07T03:32:57;14.00;;;2.60;;
4278;SDS011;2153;47.744;10.580;2023-08-07T03:35:24;14.10;;;2.80;;
4278;SDS011;2153;47.744;10.580;2023-08-07T03:37:52;13.80;;;2.37;;
4278;SDS011;2153;47.744;10.580;2023-08-07T03:40:18;12.57;;;2.50;;
4278;SDS011;2153;47.744;10.580;2023-08-07T03:42:45;12.70;;;2.90;;
4278;SDS011;2153;47.744;10.580;2023-08-07T03:45:12;11.57;;;2.53;;
4278;SDS011;2153;47.744;10.580;2023-08-07T03:47:39;11.33;;;2.03;;
4278;SDS011;2153;47.744;10.580;2023-08-07T03:50:06;12.73;;;2.80;;
4278;SDS011;2153;47.744;10.580;2023-08-07T03:52:33;14.20;;;2.33;;
4278;SDS011;2153;47.744;10.580;2023-08-07T03:55:01;11.83;;;2.00;;
4278;SDS011;2153;47.744;10.580;2023-08-07T03:57:28;11.77;;;2.17;;
4278;SDS011;2153;47.744;10.580;2023-08-07T03:59:55;13.20;;;2.30;;
4278;SDS011;2153;47.744;10.580;2023-08-07T04:02:21;12.90;;;2.53;;
4278;SDS011;2153;47.744;10.580;2023-08-07T04:04:48;12.87;;;2.70;;
4278;SDS011;2153;47.744;10.580;2023-08-07T04:07:15;12.70;;;2.33;;
4278;SDS011;2153;47.744;10.580;2023-08-07T04:09:42;11.13;;;2.03;;
4278;SDS011;2153;47.744;10.580;2023-08-07T04:12:10;13.23;;;2.47;;
4278;SDS011;2153;47.744;10.580;2023-08-07T04:14:36;13.50;;;2.50;;
4278;SDS011;2153;47.744;10.580;2023-08-07T04:17:03;12.93;;;2.70;;
4278;SDS011;2153;47.744;10.580;2023-08-07T04:19:30;15.27;;;2.40;;
4278;SDS011;2153;47.744;10.580;2023-08-07T04:21:57;20.97;;;2.70;;
4278;SDS011;2153;47.744;10.580;2023-08-07T04:24:24;13.33;;;2.60;;
4278;SDS011;2153;47.744;10.580;2023-08-07T04:26:51;13.03;;;2.47;;
4278;SDS011;2153;47.744;10.580;2023-08-07T04:29:19;15.47;;;2.53;;
4278;SDS011;2153;47.744;10.580;2023-08-07T04:31:46;21.80;;;2.90;;
4278;SDS011;2153;47.744;10.580;2023-08-07T04:34:13;16.07;;;2.90;;
4278;SDS011;2153;47.744;10.580;2023-08-07T04:36:39;17.70;;;2.50;;
4278;SDS011;2153;47.744;10.580;2023-08-07T04:39:06;11.63;;;2.10;;
4278;SDS011;2153;47.744;10.580;2023-08-07T04:41:33;18.57;;;2.70;;
4278;SDS011;2153;47.744;10.580;2023-08-07T04:44:00;11.63;;;2.37;;
4278;SDS011;2153;47.744;10.580;2023-08-07T04:46:28;12.13;;;2.23;;
4278;SDS011;2153;47.744;10.580;2023-08-07T04:48:55;11.87;;;2.10;;
4278;SDS011;2153;47.744;10.580;2023-08-07T04:51:21;12.03;;;2.13;;
4278;SDS011;2153;47.744;10.580;2023-08-07T04:53:48;11.87;;;2.50;;
4278;SDS011;2153;47.744;10.580;2023-08-07T04:56:16;11.43;;;2.00;;
4278;SDS011;2153;47.744;10.580;2023-08-07T04:58:43;12.87;;;2.20;;
4278;SDS011;2153;47.744;10.580;2023-08-07T05:01:09;11.13;;;2.10;;
4278;SDS011;2153;47.744;10.580;2023-08-07T05:03:37;24.83;;;2.77;;
4278;SDS011;2153;47.744;10.580;2023-08-07T05:06:04;11.20;;;1.90;;
4278;SDS011;2153;47.744;10.580;2023-08-07T05:08:31;13.63;;;1.80;;
4278;SDS011;2153;47.744;10.580;2023-08-07T05:10:58;11.47;;;2.33;;
4278;SDS011;2153;47.744;10.580;2023-08-07T05:13:24;12.37;;;2.00;;
4278;SDS011;2153;47.744;10.580;2023-08-07T05:15:51;12.63;;;2.00;;
4278;SDS011;2153;47.744;10.580;2023-08-07T05:18:18;12.30;;;2.10;;
4278;SDS011;2153;47.744;10.580;2023-08-07T05:20:46;11.50;;;1.90;;
4278;SDS011;2153;47.744;10.580;2023-08-07T05:23:12;11.27;;;2.00;;
4278;SDS011;2153;47.744;10.580;2023-08-07T05:25:39;11.60;;;1.97;;
4278;SDS011;2153;47.744;10.580;2023-08-07T05:28:06;20.60;;;2.70;;
4278;SDS011;2153;47.744;10.580;2023-08-07T05:30:33;12.80;;;1.90;;
4278;SDS011;2153;47.744;10.580;2023-08-07T05:32:59;15.20;;;2.50;;
4278;SDS011;2153;47.744;10.580;2023-08-07T05:35:26;11.67;;;2.00;;
4278;SDS011;2153;47.744;10.580;2023-08-07T05:37:54;13.20;;;2.40;;
4278;SDS011;2153;47.744;10.580;2023-08-07T05:40:21;11.70;;;2.03;;
4278;SDS011;2153;47.744;10.580;2023-08-07T05:42:48;12.73;;;2.10;;
4278;SDS011;2153;47.744;10.580;2023-08-07T05:45:14;13.77;;;2.43;;
4278;SDS011;2153;47.744;10.580;2023-08-07T05:47:41;11.07;;;1.70;;
4278;SDS011;2153;47.744;10.580;2023-08-07T05:50:08;12.07;;;2.10;;
4278;SDS011;2153;47.744;10.580;2023-08-07T05:52:35;12.23;;;2.00;;
4278;SDS011;2153;47.744;10.580;2023-08-07T05:55:04;11.47;;;2.20;;
4278;SDS011;2153;47.744;10.580;2023-08-07T05:57:31;13.33;;;1.90;;
4278;SDS011;2153;47.744;10.580;2023-08-07T05:59:58;11.73;;;1.80;;
4278;SDS011;2153;47.744;10.580;2023-08-07T06:02:24;13.30;;;2.37;;
4278;SDS011;2153;47.744;10.580;2023-08-07T06:04:51;12.47;;;2.30;;
4278;SDS011;2153;47.744;10.580;2023-08-07T06:07:19;12.60;;;2.00;;
4278;SDS011;2153;47.744;10.580;2023-08-07T06:09:46;12.50;;;1.93;;
4278;SDS011;2153;47.744;10.580;2023-08-07T06:12:14;11.83;;;1.87;;
4278;SDS011;2153;47.744;10.580;2023-08-07T06:14:40;11.67;;;1.80;;
4278;SDS011;2153;47.744;10.580;2023-08-07T06:17:08;12.67;;;2.17;;
4278;SDS011;2153;47.744;10.580;2023-08-07T06:19:34;11.97;;;1.97;;
4278;SDS011;2153;47.744;10.580;2023-08-07T06:22:01;11.83;;;2.00;;
4278;SDS011;2153;47.744;10.580;2023-08-07T06:24:28;14.43;;;2.20;;
4278;SDS011;2153;47.744;10.580;2023-08-07T06:26:55;11.30;;;1.73;;
4278;SDS011;2153;47.744;10.580;2023-08-07T06:29:23;11.23;;;1.77;;
4278;SDS011;2153;47.744;10.580;2023-08-07T06:31:49;12.20;;;2.07;;
4278;SDS011;2153;47.744;10.580;2023-08-07T06:34:16;18.80;;;1.73;;
4278;SDS011;2153;47.744;10.580;2023-08-07T06:36:43;12.10;;;1.67;;
4278;SDS011;2153;47.744;10.580;2023-08-07T06:39:10;11.80;;;1.87;;
4278;SDS011;2153;47.744;10.580;2023-08-07T06:41:37;12.60;;;2.00;;
4278;SDS011;2153;47.744;10.580;2023-08-07T06:44:04;13.23;;;1.73;;
4278;SDS011;2153;47.744;10.580;2023-08-07T06:46:32;14.30;;;1.87;;
4278;SDS011;2153;47.744;10.580;2023-08-07T06:48:58;12.33;;;1.73;;
4278;SDS011;2153;47.744;10.580;2023-08-07T06:51:25;11.27;;;1.43;;
4278;SDS011;2153;47.744;10.580;2023-08-07T06:53:52;11.73;;;1.90;;
4278;SDS011;2153;47.744;10.580;2023-08-07T06:56:19;12.50;;;2.20;;
4278;SDS011;2153;47.744;10.580;2023-08-07T06:58:45;11.20;;;1.73;;
4278;SDS011;2153;47.744;10.580;2023-08-07T07:01:12;13.57;;;2.10;;
4278;SDS011;2153;47.744;10.580;2023-08-07T07:03:40;11.20;;;1.77;;
4278;SDS011;2153;47.744;10.580;2023-08-07T07:06:07;11.20;;;1.80;;
4278;SDS011;2153;47.744;10.580;2023-08-07T07:08:33;11.73;;;2.00;;
4278;SDS011;2153;47.744;10.580;2023-08-07T07:11:00;11.23;;;1.70;;
4278;SDS011;2153;47.744;10.580;2023-08-07T07:13:27;13.93;;;1.87;;
4278;SDS011;2153;47.744;10.580;2023-08-07T07:15:54;11.80;;;1.60;;
4278;SDS011;2153;47.744;10.580;2023-08-07T07:18:21;14.77;;;1.70;;
4278;SDS011;2153;47.744;10.580;2023-08-07T07:20:51;13.00;;;1.60;;
4278;SDS011;2153;47.744;10.580;2023-08-07T07:23:22;11.30;;;1.73;;
4278;SDS011;2153;47.744;10.580;2023-08-07T07:25:49;11.97;;;1.73;;
4278;SDS011;2153;47.744;10.580;2023-08-07T07:28:16;11.13;;;1.70;;
4278;SDS011;2153;47.744;10.580;2023-08-07T07:30:42;11.60;;;1.70;;
4278;SDS011;2153;47.744;10.580;2023-08-07T07:33:09;12.40;;;2.03;;
4278;SDS011;2153;47.744;10.580;2023-08-07T07:35:37;12.40;;;1.70;;
4278;SDS011;2153;47.744;10.580;2023-08-07T07:38:05;11.30;;;1.73;;
4278;SDS011;2153;47.744;10.580;2023-08-07T07:40:33;12.17;;;2.03;;
4278;SDS011;2153;47.744;10.580;2023-08-07T07:43:00;15.23;;;2.13;;
4278;SDS011;2153;47.744;10.580;2023-08-07T07:45:27;12.40;;;1.87;;
4278;SDS011;2153;47.744;10.580;2023-08-07T07:47:54;14.80;;;1.53;;
4278;SDS011;2153;47.744;10.580;2023-08-07T07:50:21;12.27;;;2.53;;
4278;SDS011;2153;47.744;10.580;2023-08-07T07:52:48;11.00;;;1.40;;
4278;SDS011;2153;47.744;10.580;2023-08-07T07:55:16;12.33;;;1.90;;
4278;SDS011;2153;47.744;10.580;2023-08-07T07:57:43;11.53;;;1.60;;
4278;SDS011;2153;47.744;10.580;2023-08-07T08:00:10;11.53;;;1.50;;
4278;SDS011;2153;47.744;10.580;2023-08-07T08:02:38;13.50;;;2.10;;
4278;SDS011;2153;47.744;10.580;2023-08-07T08:05:06;20.87;;;1.40;;
4278;SDS011;2153;47.744;10.580;2023-08-07T08:07:34;10.90;;;1.50;;
4278;SDS011;2153;47.744;10.580;2023-08-07T08:10:01;12.50;;;1.80;;
4278;SDS011;2153;47.744;10.580;2023-08-07T08:12:31;13.77;;;1.80;;
4278;SDS011;2153;47.744;10.580;2023-08-07T08:14:57;12.67;;;1.80;;
4278;SDS011;2153;47.744;10.580;2023-08-07T08:17:24;12.00;;;1.43;;
4278;SDS011;2153;47.744;10.580;2023-08-07T08:19:51;11.10;;;1.53;;
4278;SDS011;2153;47.744;10.580;2023-08-07T08:22:18;14.13;;;2.00;;
4278;SDS011;2153;47.744;10.580;2023-08-07T08:24:45;12.10;;;1.67;;
4278;SDS011;2153;47.744;10.580;2023-08-07T08:27:12;11.40;;;1.40;;
4278;SDS011;2153;47.744;10.580;2023-08-07T08:29:40;14.20;;;1.77;;
4278;SDS011;2153;47.744;10.580;2023-08-07T08:32:07;16.93;;;1.40;;
4278;SDS011;2153;47.744;10.580;2023-08-07T08:34:34;12.40;;;1.67;;
4278;SDS011;2153;47.744;10.580;2023-08-07T08:37:01;11.50;;;1.57;;
4278;SDS011;2153;47.744;10.580;2023-08-07T08:39:30;11.83;;;1.87;;
4278;SDS011;2153;47.744;10.580;2023-08-07T08:41:57;11.93;;;1.87;;
4278;SDS011;2153;47.744;10.580;2023-08-07T08:44:25;14.43;;;1.93;;
4278;SDS011;2153;47.744;10.580;2023-08-07T08:46:56;10.60;;;1.10;;
4278;SDS011;2153;47.744;10.580;2023-08-07T08:49:28;11.30;;;1.20;;
4278;SDS011;2153;47.744;10.580;2023-08-07T08:51:59;11.33;;;1.27;;
4278;SDS011;2153;47.744;10.580;2023-08-07T08:54:26;12.37;;;1.30;;
4278;SDS011;2153;47.744;10.580;2023-08-07T08:56:53;11.27;;;1.50;;
4278;SDS011;2153;47.744;10.580;2023-08-07T08:59:21;12.13;;;1.30;;
4278;SDS011;2153;47.744;10.580;2023-08-07T09:01:48;14.17;;;2.20;;
4278;SDS011;2153;47.744;10.580;2023-08-07T09:04:19;12.30;;;1.63;;
4278;SDS011;2153;47.744;10.580;2023-08-07T09:06:45;11.67;;;1.67;;
4278;SDS011;2153;47.744;10.580;2023-08-07T09:09:13;10.97;;;1.40;;
4278;SDS011;2153;47.744;10.580;2023-08-07T09:11:40;11.10;;;1.37;;
4278;SDS011;2153;47.744;10.580;2023-08-07T09:14:09;12.10;;;1.50;;
4278;SDS011;2153;47.744;10.580;2023-08-07T09:16:38;18.30;;;3.10;;
4278;SDS011;2153;47.744;10.580;2023-08-07T09:19:05;12.00;;;1.80;;
4278;SDS011;2153;47.744;10.580;2023-08-07T09:21:34;11.10;;;1.30;;
4278;SDS011;2153;47.744;10.580;2023-08-07T09:24:01;18.13;;;1.37;;
4278;SDS011;2153;47.744;10.580;2023-08-07T09:26:28;15.97;;;1.80;;
4278;SDS011;2153;47.744;10.580;2023-08-07T09:28:54;12.43;;;1.47;;
4278;SDS011;2153;47.744;10.580;2023-08-07T09:31:21;13.43;;;1.53;;
4278;SDS011;2153;47.744;10.580;2023-08-07T09:33:51;10.87;;;1.40;;
4278;SDS011;2153;47.744;10.580;2023-08-07T09:36:18;11.40;;;1.60;;
4278;SDS011;2153;47.744;10.580;2023-08-07T09:38:50;10.63;;;1.13;;
4278;SDS011;2153;47.744;10.580;2023-08-07T09:41:17;14.37;;;1.60;;
4278;SDS011;2153;47.744;10.580;2023-08-07T09:43:44;10.90;;;1.30;;
4278;SDS011;2153;47.744;10.580;2023-08-07T09:46:11;11.20;;;1.37;;
4278;SDS011;2153;47.744;10.580;2023-08-07T09:48:41;10.80;;;1.37;;
4278;SDS011;2153;47.744;10.580;2023-08-07T09:51:09;10.40;;;1.27;;
4278;SDS011;2153;47.744;10.580;2023-08-07T09:53:35;10.70;;;1.30;;
4278;SDS011;2153;47.744;10.580;2023-08-07T09:56:04;12.60;;;1.47;;
4278;SDS011;2153;47.744;10.580;2023-08-07T09:58:31;11.60;;;1.40;;
4278;SDS011;2153;47.744;10.580;2023-08-07T10:01:00;11.23;;;1.60;;
4278;SDS011;2153;47.744;10.580;2023-08-07T10:03:30;11.87;;;1.80;;
4278;SDS011;2153;47.744;10.580;2023-08-07T10:05:57;11.03;;;1.13;;
4278;SDS011;2153;47.744;10.580;2023-08-07T10:08:24;11.10;;;1.50;;
4278;SDS011;2153;47.744;10.580;2023-08-07T10:10:51;11.37;;;1.30;;
4278;SDS011;2153;47.744;10.580;2023-08-07T10:13:19;11.67;;;1.43;;
4278;SDS011;2153;47.744;10.580;2023-08-07T10:15:48;11.30;;;1.77;;
4278;SDS011;2153;47.744;10.580;2023-08-07T10:18:16;10.77;;;1.40;;
4278;SDS011;2153;47.744;10.580;2023-08-07T10:20:43;11.97;;;1.37;;
4278;SDS011;2153;47.744;10.580;2023-08-07T10:23:10;10.83;;;1.20;;
4278;SDS011;2153;47.744;10.580;2023-08-07T10:25:38;11.00;;;1.40;;
4278;SDS011;2153;47.744;10.580;2023-08-07T10:28:08;11.00;;;1.30;;
4278;SDS011;2153;47.744;10.580;2023-08-07T10:30:39;11.10;;;1.47;;
4278;SDS011;2153;47.744;10.580;2023-08-07T10:33:07;11.00;;;1.30;;
4278;SDS011;2153;47.744;10.580;2023-08-07T10:35:35;11.53;;;1.83;;
4278;SDS011;2153;47.744;10.580;2023-08-07T10:38:05;11.03;;;1.20;;
4278;SDS011;2153;47.744;10.580;2023-08-07T10:40:33;11.60;;;1.50;;
4278;SDS011;2153;47.744;10.580;2023-08-07T10:43:11;12.80;;;1.87;;
4278;SDS011;2153;47.744;10.580;2023-08-07T10:45:40;12.60;;;1.50;;
4278;SDS011;2153;47.744;10.580;2023-08-07T10:48:07;10.90;;;1.20;;
4278;SDS011;2153;47.744;10.580;2023-08-07T10:50:47;10.47;;;1.10;;
4278;SDS011;2153;47.744;10.580;2023-08-07T10:53:18;10.77;;;1.10;;
4278;SDS011;2153;47.744;10.580;2023-08-07T10:55:46;10.90;;;1.30;;
4278;SDS011;2153;47.744;10.580;2023-08-07T10:58:20;10.83;;;1.20;;
4278;SDS011;2153;47.744;10.580;2023-08-07T11:00:51;11.23;;;1.30;;
4278;SDS011;2153;47.744;10.580;2023-08-07T11:03:25;11.23;;;1.20;;
4278;SDS011;2153;47.744;10.580;2023-08-07T11:05:53;11.43;;;1.30;;
4278;SDS011;2153;47.744;10.580;2023-08-07T11:08:21;13.50;;;1.70;;
4278;SDS011;2153;47.744;10.580;2023-08-07T11:10:49;14.17;;;1.90;;
4278;SDS011;2153;47.744;10.580;2023-08-07T11:13:16;11.50;;;1.73;;
4278;SDS011;2153;47.744;10.580;2023-08-07T11:15:43;15.23;;;1.77;;
4278;SDS011;2153;47.744;10.580;2023-08-07T11:18:13;12.77;;;1.63;;
4278;SDS011;2153;47.744;10.580;2023-08-07T11:20:41;11.50;;;1.50;;
4278;SDS011;2153;47.744;10.580;2023-08-07T11:23:08;13.00;;;1.47;;
4278;SDS011;2153;47.744;10.580;2023-08-07T11:25:36;11.50;;;1.73;;
4278;SDS011;2153;47.744;10.580;2023-08-07T11:28:03;11.63;;;1.67;;
4278;SDS011;2153;47.744;10.580;2023-08-07T11:30:30;12.17;;;1.50;;
4278;SDS011;2153;47.744;10.580;2023-08-07T11:32:57;11.40;;;1.40;;
4278;SDS011;2153;47.744;10.580;2023-08-07T11:35:25;12.17;;;1.50;;
4278;SDS011;2153;47.744;10.580;2023-08-07T11:37:52;12.40;;;2.00;;
4278;SDS011;2153;47.744;10.580;2023-08-07T11:40:19;12.23;;;2.03;;
4278;SDS011;2153;47.744;10.580;2023-08-07T11:42:46;10.80;;;1.23;;
4278;SDS011;2153;47.744;10.580;2023-08-07T11:45:13;10.57;;;1.40;;
4278;SDS011;2153;47.744;10.580;2023-08-07T11:47:40;11.40;;;1.53;;
4278;SDS011;2153;47.744;10.580;2023-08-07T11:50:07;11.80;;;1.40;;
4278;SDS011;2153;47.744;10.580;2023-08-07T11:52:38;10.67;;;1.50;;
4278;SDS011;2153;47.744;10.580;2023-08-07T11:55:06;11.63;;;1.37;;
4278;SDS011;2153;47.744;10.580;2023-08-07T11:57:34;11.27;;;1.70;;
4278;SDS011;2153;47.744;10.580;2023-08-07T12:00:05;13.03;;;2.00;;
4278;SDS011;2153;47.744;10.580;2023-08-07T12:02:35;12.50;;;1.60;;
4278;SDS011;2153;47.744;10.580;2023-08-07T12:05:03;11.07;;;1.60;;
4278;SDS011;2153;47.744;10.580;2023-08-07T12:07:30;10.67;;;1.37;;
4278;SDS011;2153;47.744;10.580;2023-08-07T12:09:58;12.33;;;1.70;;
4278;SDS011;2153;47.744;10.580;2023-08-07T12:12:25;11.40;;;1.70;;
4278;SDS011;2153;47.744;10.580;2023-08-07T12:14:52;12.10;;;1.80;;
4278;SDS011;2153;47.744;10.580;2023-08-07T12:17:20;12.70;;;1.60;;
4278;SDS011;2153;47.744;10.580;2023-08-07T12:19:47;10.60;;;1.50;;
4278;SDS011;2153;47.744;10.580;2023-08-07T12:22:18;10.60;;;1.37;;
4278;SDS011;2153;47.744;10.580;2023-08-07T12:24:46;12.50;;;1.10;;
4278;SDS011;2153;47.744;10.580;2023-08-07T12:27:14;10.80;;;1.40;;
4278;SDS011;2153;47.744;10.580;2023-08-07T12:29:41;10.30;;;1.03;;
4278;SDS011;2153;47.744;10.580;2023-08-07T12:32:07;11.30;;;1.77;;
4278;SDS011;2153;47.744;10.580;2023-08-07T12:34:35;12.40;;;1.40;;
4278;SDS011;2153;47.744;10.580;2023-08-07T12:37:03;11.30;;;1.60;;
4278;SDS011;2153;47.744;10.580;2023-08-07T12:39:30;10.73;;;1.43;;
4278;SDS011;2153;47.744;10.580;2023-08-07T12:41:57;11.90;;;1.10;;
4278;SDS011;2153;47.744;10.580;2023-08-07T12:44:25;10.50;;;1.30;;
4278;SDS011;2153;47.744;10.580;2023-08-07T12:46:52;9.90;;;0.90;;
4278;SDS011;2153;47.744;10.580;2023-08-07T12:49:19;12.67;;;1.23;;
4278;SDS011;2153;47.744;10.580;2023-08-07T12:51:45;10.70;;;1.23;;
4278;SDS011;2153;47.744;10.580;2023-08-07T12:54:12;10.87;;;1.23;;
4278;SDS011;2153;47.744;10.580;2023-08-07T12:56:39;11.00;;;1.30;;
4278;SDS011;2153;47.744;10.580;2023-08-07T12:59:06;10.30;;;1.13;;
4278;SDS011;2153;47.744;10.580;2023-08-07T13:01:34;10.90;;;1.20;;
4278;SDS011;2153;47.744;10.580;2023-08-07T13:04:00;10.63;;;1.30;;
4278;SDS011;2153;47.744;10.580;2023-08-07T13:06:29;13.83;;;1.63;;
4278;SDS011;2153;47.744;10.580;2023-08-07T13:08:56;10.67;;;1.30;;
4278;SDS011;2153;47.744;10.580;2023-08-07T13:11:23;10.30;;;1.00;;
4278;SDS011;2153;47.744;10.580;2023-08-07T13:13:50;10.37;;;1.00;;
4278;SDS011;2153;47.744;10.580;2023-08-07T13:16:16;10.47;;;1.00;;
4278;SDS011;2153;47.744;10.580;2023-08-07T13:18:44;10.20;;;0.90;;
4278;SDS011;2153;47.744;10.580;2023-08-07T13:21:11;10.90;;;0.83;;
4278;SDS011;2153;47.744;10.580;2023-08-07T13:23:38;13.00;;;1.00;;
4278;SDS011;2153;47.744;10.580;2023-08-07T13:26:04;10.80;;;1.20;;
4278;SDS011;2153;47.744;10.580;2023-08-07T13:28:31;11.70;;;1.03;;
4278;SDS011;2153;47.744;10.580;2023-08-07T13:30:58;10.47;;;0.90;;
4278;SDS011;2153;47.744;10.580;2023-08-07T13:33:24;10.03;;;0.80;;
4278;SDS011;2153;47.744;10.580;2023-08-07T13:35:52;10.80;;;0.90;;
4278;SDS011;2153;47.744;10.580;2023-08-07T13:38:19;10.40;;;1.10;;
4278;SDS011;2153;47.744;10.580;2023-08-07T13:40:46;10.73;;;1.00;;
4278;SDS011;2153;47.744;10.580;2023-08-07T13:43:13;11.23;;;0.97;;
4278;SDS011;2153;47.744;10.580;2023-08-07T13:45:39;10.27;;;0.80;;
4278;SDS011;2153;47.744;10.580;2023-08-07T13:48:06;10.60;;;1.00;;
4278;SDS011;2153;47.744;10.580;2023-08-07T13:50:34;12.20;;;1.00;;
4278;SDS011;2153;47.744;10.580;2023-08-07T13:53:04;11.40;;;1.27;;
4278;SDS011;2153;47.744;10.580;2023-08-07T13:55:30;10.40;;;0.90;;
4278;SDS011;2153;47.744;10.580;2023-08-07T13:57:57;11.00;;;1.20;;
4278;SDS011;2153;47.744;10.580;2023-08-07T14:00:24;11.60;;;1.20;;
4278;SDS011;2153;47.744;10.580;2023-08-07T14:02:51;14.00;;;1.00;;
4278;SDS011;2153;47.744;10.580;2023-08-07T14:05:17;11.70;;;1.13;;
4278;SDS011;2153;47.744;10.580;2023-08-07T14:07:44;11.20;;;1.40;;
4278;SDS011;2153;47.744;10.580;2023-08-07T14:10:12;11.10;;;1.03;;
4278;SDS011;2153;47.744;10.580;2023-08-07T14:12:39;11.00;;;1.33;;
4278;SDS011;2153;47.744;10.580;2023-08-07T14:15:06;10.53;;;1.20;;
4278;SDS011;2153;47.744;10.580;2023-08-07T14:17:33;10.97;;;1.37;;
4278;SDS011;2153;47.744;10.580;2023-08-07T14:19:59;10.73;;;1.27;;
4278;SDS011;2153;47.744;10.580;2023-08-07T14:22:26;10.70;;;1.13;;
4278;SDS011;2153;47.744;10.580;2023-08-07T14:24:53;10.80;;;1.23;;
4278;SDS011;2153;47.744;10.580;2023-08-07T14:27:21;10.90;;;1.17;;
4278;SDS011;2153;47.744;10.580;2023-08-07T14:29:47;10.73;;;1.20;;
4278;SDS011;2153;47.744;10.580;2023-08-07T14:32:14;10.80;;;1.20;;
4278;SDS011;2153;47.744;10.580;2023-08-07T14:34:41;10.37;;;1.03;;
4278;SDS011;2153;47.744;10.580;2023-08-07T14:37:07;10.90;;;1.10;;
4278;SDS011;2153;47.744;10.580;2023-08-07T14:39:34;10.40;;;1.13;;
4278;SDS011;2153;47.744;10.580;2023-08-07T14:42:01;11.00;;;1.13;;
4278;SDS011;2153;47.744;10.580;2023-08-07T14:44:29;10.80;;;1.07;;
4278;SDS011;2153;47.744;10.580;2023-08-07T14:46:56;11.20;;;1.30;;
4278;SDS011;2153;47.744;10.580;2023-08-07T14:49:22;11.73;;;1.80;;